Time;durP1;ratioP1;P1;durP2;ratioP2;P2;SDS_P1;SDS_P2;PMS_P1;PMS_P2;Temp;Humidity;BMP_temperature;BMP_pressure;BME280_temperature;BME280_humidity;BME280_pressure;Samples;Min_cycle;Max_cycle;Signal;HPM_P1;HPM_P2
2022/08/27 00:02:19;;;;;;;4.47;2.10;;;;;;;20.15;100.00;101167.19;6247907;28;20046;-79
2022/08/27 00:05:22;;;;;;;4.70;1.52;;;;;;;20.14;100.00;101170.00;6247606;28;20041;-79
2022/08/27 00:08:24;;;;;;;4.18;1.80;;;;;;;20.09;100.00;101170.41;6247757;28;20045;-79
2022/08/27 00:11:25;;;;;;;7.28;2.20;;;;;;;20.08;100.00;101170.56;6247774;28;20054;-79
2022/08/27 00:14:28;;;;;;;5.97;2.45;;;;;;;19.97;100.00;101153.63;6247426;28;20058;-79
2022/08/27 00:17:29;;;;;;;6.57;1.85;;;;;;;20.06;100.00;101159.16;6248167;28;20049;-80
2022/08/27 00:20:32;;;;;;;3.90;1.70;;;;;;;19.99;100.00;101162.38;6247427;28;20493;-79
2022/08/27 00:23:34;;;;;;;3.72;1.88;;;;;;;19.97;100.00;101150.97;6248175;28;20053;-79
2022/08/27 00:26:35;;;;;;;7.80;1.95;;;;;;;19.88;100.00;101151.75;6247860;28;20041;-80
2022/08/27 00:29:37;;;;;;;3.33;2.10;;;;;;;19.92;100.00;101141.66;6248678;28;20520;-76
2022/08/27 00:32:39;;;;;;;5.88;2.10;;;;;;;19.83;100.00;101150.47;6248952;28;20045;-78
2022/08/27 00:35:41;;;;;;;5.07;1.80;;;;;;;19.87;100.00;101150.06;6247569;28;20052;-80
2022/08/27 00:38:43;;;;;;;5.80;1.88;;;;;;;19.74;100.00;101144.94;6247780;28;20493;-77
2022/08/27 00:41:44;;;;;;;6.65;2.40;;;;;;;19.73;100.00;101151.25;6247262;28;20050;-79
2022/08/27 00:44:46;;;;;;;7.90;2.25;;;;;;;19.66;100.00;101149.22;6251421;28;20053;-79
2022/08/27 00:47:53;;;;;;;7.40;1.63;;;;;;;19.65;100.00;101148.38;6252433;28;20053;-79
2022/08/27 00:50:55;;;;;;;6.40;2.22;;;;;;;19.58;100.00;101141.03;6252587;28;20259;-79
2022/08/27 00:54:01;;;;;;;6.97;1.83;;;;;;;19.62;100.00;101145.13;6251832;28;20060;-80
2022/08/27 00:57:03;;;;;;;3.75;1.65;;;;;;;19.63;100.00;101162.84;6252083;28;20049;-79
2022/08/27 01:00:08;;;;;;;7.13;2.03;;;;;;;19.66;100.00;101155.41;6252456;28;20417;-79
2022/08/27 01:03:10;;;;;;;4.20;1.80;;;;;;;19.72;100.00;101162.06;6252901;28;20057;-79
2022/08/27 01:06:16;;;;;;;3.60;1.50;;;;;;;19.73;100.00;101163.75;6251873;28;20045;-80
2022/08/27 01:09:18;;;;;;;5.60;1.42;;;;;;;19.65;100.00;101169.72;6237187;28;20116;-80
2022/08/27 01:12:19;;;;;;;4.63;1.63;;;;;;;19.63;100.00;101176.19;6227552;28;20054;-79
2022/08/27 01:15:24;;;;;;;4.32;1.27;;;;;;;19.54;100.00;101182.25;6227359;28;20486;-80
2022/08/27 01:18:27;;;;;;;3.72;1.10;;;;;;;19.53;100.00;101186.75;6226956;28;20054;-79
2022/08/27 01:21:36;;;;;;;2.78;1.35;;;;;;;19.49;100.00;101188.81;6227405;28;20054;-79
2022/08/27 01:24:42;;;;;;;3.50;1.15;;;;;;;19.48;100.00;101191.59;6233665;28;20437;-80
2022/08/27 01:27:45;;;;;;;5.10;1.52;;;;;;;19.49;100.00;101193.31;6236714;28;20050;-80
2022/08/27 01:30:47;;;;;;;4.95;1.40;;;;;;;19.46;100.00;101194.41;6234578;28;20053;-81
2022/08/27 01:33:54;;;;;;;5.00;1.48;;;;;;;19.42;100.00;101189.44;6234408;28;20065;-81
2022/08/27 01:36:55;;;;;;;3.03;1.00;;;;;;;19.43;100.00;101196.47;6235305;28;20054;-80
2022/08/27 01:39:58;;;;;;;2.85;1.58;;;;;;;19.34;100.00;101187.41;6234563;28;20079;-80
2022/08/27 01:43:00;;;;;;;3.72;0.85;;;;;;;19.35;100.00;101186.47;6234658;28;20053;-80
2022/08/27 01:46:01;;;;;;;7.07;1.42;;;;;;;19.32;100.00;101185.88;6233695;28;20043;-81
2022/08/27 01:49:03;;;;;;;7.38;1.17;;;;;;;19.21;100.00;101186.75;6233994;28;20398;-79
2022/08/27 01:52:05;;;;;;;4.00;1.48;;;;;;;19.37;100.00;101192.50;6234500;28;20045;-80
2022/08/27 01:55:11;;;;;;;5.40;1.10;;;;;;;19.38;100.00;101191.53;6232797;28;20049;-81
2022/08/27 01:58:13;;;;;;;4.90;1.13;;;;;;;19.27;100.00;101199.56;6235093;28;20129;-80
2022/08/27 02:01:16;;;;;;;2.83;1.92;;;;;;;19.34;100.00;101198.06;6234114;28;20053;-80
2022/08/27 02:04:18;;;;;;;5.95;1.10;;;;;;;19.42;100.00;101192.13;6235142;28;20077;-80
2022/08/27 02:07:19;;;;;;;1.95;1.00;;;;;;;19.36;100.00;101196.16;6234065;28;20128;-80
2022/08/27 02:10:25;;;;;;;1.80;0.95;;;;;;;19.27;100.00;101187.09;6234539;28;20049;-80
2022/08/27 02:13:27;;;;;;;1.67;0.95;;;;;;;19.30;100.00;101185.97;6234334;28;20053;-81
2022/08/27 02:16:29;;;;;;;5.65;1.17;;;;;;;19.34;100.00;101184.75;6233535;28;20060;-81
2022/08/27 02:19:30;;;;;;;1.98;0.90;;;;;;;19.27;100.00;101188.91;6233994;28;20050;-82
2022/08/27 02:22:31;;;;;;;4.03;1.77;;;;;;;19.25;100.00;101181.03;6232216;28;20045;-81
2022/08/27 02:25:34;;;;;;;2.53;1.10;;;;;;;19.32;100.00;101183.19;6232711;28;20421;-81
2022/08/27 02:28:36;;;;;;;5.03;0.90;;;;;;;19.22;100.00;101188.47;6234557;28;20521;-81
2022/08/27 02:31:40;;;;;;;5.35;0.90;;;;;;;19.12;100.00;101193.69;6258131;28;20049;-80
2022/08/27 02:34:41;;;;;;;2.85;0.95;;;;;;;19.26;100.00;101190.75;6255934;28;20053;-80
2022/08/27 02:37:43;;;;;;;2.90;1.00;;;;;;;19.12;100.00;101193.69;6258176;28;20052;-81
2022/08/27 02:40:46;;;;;;;2.10;1.00;;;;;;;19.07;100.00;101197.69;6257260;28;20073;-79
2022/08/27 02:43:47;;;;;;;4.78;1.35;;;;;;;19.09;100.00;101190.44;6256686;28;20440;-81
2022/08/27 02:46:48;;;;;;;3.17;1.08;;;;;;;19.11;100.00;101196.47;6256518;28;20049;-80
2022/08/27 02:49:50;;;;;;;4.88;1.00;;;;;;;19.22;100.00;101199.13;6256486;28;20056;-80
2022/08/27 02:52:51;;;;;;;3.03;1.13;;;;;;;19.18;100.00;101211.84;6257642;28;20056;-81
2022/08/27 02:55:54;;;;;;;4.07;0.95;;;;;;;19.16;100.00;101203.09;6257738;28;20049;-80
2022/08/27 02:58:55;;;;;;;1.05;0.73;;;;;;;19.20;100.00;101206.38;6257280;28;20056;-80
2022/08/27 03:01:56;;;;;;;3.97;0.70;;;;;;;19.20;100.00;101204.53;6256868;28;20053;-80
2022/08/27 03:04:58;;;;;;;5.55;1.73;;;;;;;19.15;100.00;101208.56;6257055;28;20053;-81
2022/08/27 03:07:59;;;;;;;2.03;1.08;;;;;;;19.16;100.00;101208.44;6256909;28;20045;-80
2022/08/27 03:11:02;;;;;;;2.70;0.90;;;;;;;19.05;100.00;101208.47;6257150;28;20045;-81
2022/08/27 03:14:03;;;;;;;3.42;0.98;;;;;;;19.06;100.00;101204.00;6257166;28;20045;-81
2022/08/27 03:20:20;;;;;;;1.00;0.50;;;;;;;18.94;100.00;101205.81;6258239;28;20557;-80
2022/08/27 03:23:24;;;;;;;1.77;0.82;;;;;;;19.05;100.00;101199.66;6256687;28;20056;-81
2022/08/27 03:26:27;;;;;;;7.72;1.38;;;;;;;19.07;100.00;101190.53;6255826;28;20465;-81
2022/08/27 03:29:29;;;;;;;2.28;0.77;;;;;;;19.09;100.00;101187.78;6256593;28;20132;-81
2022/08/27 03:32:30;;;;;;;2.15;1.08;;;;;;;19.08;100.00;101191.41;6255832;28;20053;-81
2022/08/27 03:35:32;;;;;;;2.90;0.80;;;;;;;19.05;100.00;101194.31;6257049;28;20500;-81
2022/08/27 03:38:34;;;;;;;3.83;0.88;;;;;;;19.07;100.00;101193.19;6257283;28;20049;-80
2022/08/27 03:41:36;;;;;;;2.05;1.00;;;;;;;19.01;100.00;101191.06;6256159;28;20112;-81
2022/08/27 03:44:38;;;;;;;4.05;1.35;;;;;;;18.94;100.00;101190.72;6256694;28;20057;-80
2022/08/27 03:47:40;;;;;;;1.67;1.02;;;;;;;18.95;100.00;101188.91;6257773;28;20460;-81
2022/08/27 03:50:43;;;;;;;4.07;1.27;;;;;;;18.93;100.00;101182.84;6256382;28;20050;-80
2022/08/27 03:53:45;;;;;;;2.20;0.90;;;;;;;19.04;100.00;101187.31;6255780;28;20049;-80
2022/08/27 03:56:48;;;;;;;2.97;0.85;;;;;;;18.89;100.00;101186.72;6255549;28;20045;-80
2022/08/27 03:59:50;;;;;;;4.97;1.13;;;;;;;18.86;100.00;101179.00;6256111;28;20050;-82
2022/08/27 04:02:51;;;;;;;1.98;0.90;;;;;;;18.88;100.00;101180.53;6256532;28;20049;-80
2022/08/27 04:05:53;;;;;;;1.58;0.70;;;;;;;18.82;100.00;101177.56;6255274;28;20049;-82
2022/08/27 04:08:55;;;;;;;3.58;1.10;;;;;;;18.90;100.00;101175.97;6255990;28;20045;-80
2022/08/27 04:11:58;;;;;;;5.28;1.00;;;;;;;18.90;100.00;101170.63;6255795;28;20061;-81
2022/08/27 04:14:59;;;;;;;2.88;0.98;;;;;;;18.92;100.00;101178.47;6255917;28;20132;-81
2022/08/27 04:18:01;;;;;;;1.40;0.85;;;;;;;19.02;100.00;101179.41;6256411;28;20456;-79
2022/08/27 04:21:07;;;;;;;2.78;0.90;;;;;;;18.92;100.00;101175.81;6261824;28;20060;-81
2022/08/27 04:24:10;;;;;;;7.65;1.35;;;;;;;19.01;100.00;101177.72;6260472;28;20064;-78
2022/08/27 04:27:13;;;;;;;1.17;0.85;;;;;;;18.92;100.00;101176.66;6258312;28;20046;-80
2022/08/27 04:30:15;;;;;;;2.88;1.23;;;;;;;18.83;100.00;101185.41;6260312;28;20113;-79
2022/08/27 04:33:17;;;;;;;2.50;1.60;;;;;;;18.72;100.00;101191.59;6253955;28;20394;-81
2022/08/27 04:36:19;;;;;;;3.53;0.90;;;;;;;18.72;100.00;101182.78;6248880;28;20061;-79
2022/08/27 04:39:20;;;;;;;4.47;1.55;;;;;;;18.68;100.00;101189.28;6240993;28;20058;-81
2022/08/27 04:42:23;;;;;;;2.47;0.98;;;;;;;18.71;100.00;101189.91;6248290;28;20061;-81
2022/08/27 04:45:25;;;;;;;6.38;1.50;;;;;;;18.78;100.00;101186.75;6258611;28;20417;-80
2022/08/27 04:48:26;;;;;;;3.40;0.90;;;;;;;18.73;100.00;101193.28;6250054;28;20042;-81
2022/08/27 04:51:29;;;;;;;1.45;0.93;;;;;;;18.74;100.00;101189.66;6245048;28;20048;-81
2022/08/27 04:54:31;;;;;;;3.97;1.00;;;;;;;18.78;100.00;101198.25;6248575;28;20046;-80
2022/08/27 04:57:34;;;;;;;2.50;0.90;;;;;;;18.74;100.00;101196.81;6252207;28;20042;-80
2022/08/27 05:00:41;;;;;;;5.88;1.13;;;;;;;18.76;100.00;101200.19;6247344;28;20049;-80
2022/08/27 05:03:43;;;;;;;2.55;0.73;;;;;;;18.72;100.00;101196.94;6241999;28;20046;-80
2022/08/27 05:06:44;;;;;;;1.55;0.85;;;;;;;18.72;100.00;101198.75;6252454;28;20042;-81
2022/08/27 05:09:46;;;;;;;2.38;0.68;;;;;;;18.83;100.00;101200.53;6243986;28;20053;-81
2022/08/27 05:12:48;;;;;;;2.83;1.05;;;;;;;18.70;100.00;101203.34;6236297;28;20061;-81
2022/08/27 05:15:57;;;;;;;3.38;0.82;;;;;;;18.59;100.00;101198.84;6235886;28;20057;-80
2022/08/27 05:18:59;;;;;;;4.95;1.00;;;;;;;18.55;100.00;101202.72;6234489;28;20152;-80
2022/08/27 05:22:00;;;;;;;3.17;1.20;;;;;;;18.53;100.00;101202.00;6236080;28;20101;-81
2022/08/27 05:25:02;;;;;;;1.52;0.75;;;;;;;18.59;100.00;101195.34;6234821;28;20516;-80
2022/08/27 05:28:04;;;;;;;4.57;0.80;;;;;;;18.51;100.00;101207.44;6237002;28;20056;-81
2022/08/27 05:31:11;;;;;;;1.10;0.82;;;;;;;18.42;100.00;101199.34;6237601;28;20057;-80
2022/08/27 05:34:12;;;;;;;4.32;0.82;;;;;;;18.45;100.00;101199.09;6235321;28;20133;-81
2022/08/27 05:37:14;;;;;;;1.83;0.90;;;;;;;18.47;100.00;101198.00;6235043;28;20127;-81
2022/08/27 05:40:15;;;;;;;1.45;0.68;;;;;;;18.47;100.00;101194.50;6233795;28;20137;-80
2022/08/27 05:43:18;;;;;;;3.95;0.73;;;;;;;18.51;100.00;101198.59;6234985;28;20057;-80
2022/08/27 05:46:22;;;;;;;3.13;0.95;;;;;;;18.55;100.00;101202.72;6235270;28;20061;-80
2022/08/27 05:49:23;;;;;;;1.30;0.65;;;;;;;18.57;100.00;101197.25;6234814;28;20050;-80
2022/08/27 05:52:24;;;;;;;3.83;0.65;;;;;;;18.54;100.00;101195.72;6232900;28;20425;-80
2022/08/27 05:55:26;;;;;;;3.08;0.70;;;;;;;18.50;100.00;101195.09;6233295;28;20398;-80
2022/08/27 06:01:50;;;;;;;2.80;0.90;;;;;;;18.58;100.00;101198.97;6232641;28;20049;-81
2022/08/27 06:04:52;;;;;;;6.82;1.85;;;;;;;18.55;100.00;101200.06;6233127;28;20076;-80
2022/08/27 06:07:53;;;;;;;2.33;0.70;;;;;;;18.40;100.00;101202.13;6234738;28;20073;-80
2022/08/27 06:10:55;;;;;;;5.70;0.88;;;;;;;18.52;100.00;101205.63;6233262;28;20050;-81
2022/08/27 06:13:57;;;;;;;2.47;0.80;;;;;;;18.44;100.00;101206.25;6233779;28;20050;-81
2022/08/27 06:17:00;;;;;;;4.55;0.90;;;;;;;18.40;100.00;101207.47;6233813;28;20061;-81
2022/08/27 06:20:01;;;;;;;5.78;1.10;;;;;;;18.58;100.00;101207.81;6230083;28;20517;-80
2022/08/27 06:23:03;;;;;;;3.20;0.73;;;;;;;18.56;100.00;101212.41;6232250;28;20057;-81
2022/08/27 06:26:06;;;;;;;5.00;0.85;;;;;;;18.52;100.00;101213.59;6233706;28;20057;-80
2022/08/27 06:29:10;;;;;;;1.95;0.80;;;;;;;18.56;100.00;101212.41;6233463;28;20133;-79
2022/08/27 06:32:13;;;;;;;2.17;0.68;;;;;;;18.41;100.00;101218.94;6233849;28;20057;-81
2022/08/27 06:35:14;;;;;;;3.90;0.93;;;;;;;18.55;100.00;101220.50;6232818;28;20053;-80
2022/08/27 06:38:16;;;;;;;1.58;0.70;;;;;;;18.56;100.00;101215.06;6231910;28;20049;-80
2022/08/27 06:41:20;;;;;;;0.90;0.70;;;;;;;18.55;100.00;101216.03;6231641;28;20050;-80
2022/08/27 06:44:24;;;;;;;9.35;1.42;;;;;;;18.63;100.00;101218.09;6232399;28;20057;-80
2022/08/27 06:47:26;;;;;;;1.70;0.73;;;;;;;18.69;100.00;101226.47;6232545;28;20525;-81
2022/08/27 06:50:27;;;;;;;7.57;0.90;;;;;;;18.77;100.00;101231.19;6232595;28;20061;-79
2022/08/27 06:53:28;;;;;;;3.15;0.75;;;;;;;18.77;100.00;101236.50;6233341;28;20082;-80
2022/08/27 06:56:30;;;;;;;1.77;0.70;;;;;;;18.80;100.00;101230.91;6240479;28;20061;-80
2022/08/27 06:59:33;;;;;;;1.77;0.70;;;;;;;18.80;100.00;101230.06;6244409;28;20105;-81
2022/08/27 07:02:35;;;;;;;2.45;0.98;;;;;;;18.81;100.00;101232.63;6251835;28;20068;-80
2022/08/27 07:05:39;;;;;;;0.70;0.70;;;;;;;18.80;100.00;101230.91;6250326;28;20073;-80
2022/08/27 07:08:42;;;;;;;1.90;0.88;;;;;;;18.74;100.00;101239.41;6256815;28;20052;-80
2022/08/27 07:11:43;;;;;;;7.00;1.30;;;;;;;18.69;100.00;101239.78;6248848;28;20418;-80
2022/08/27 07:14:46;;;;;;;2.55;0.77;;;;;;;18.79;100.00;101242.53;6238880;28;20523;-82
2022/08/27 07:17:47;;;;;;;15.20;1.92;;;;;;;18.76;100.00;101242.81;6232790;28;20046;-82
2022/08/27 07:20:51;;;;;;;4.75;1.00;;;;;;;18.79;100.00;101237.22;6241659;28;20056;-82
2022/08/27 07:23:54;;;;;;;1.23;0.70;;;;;;;18.80;100.00;101244.22;6257826;28;20045;-81
2022/08/27 07:26:56;;;;;;;5.20;0.63;;;;;;;18.93;100.00;101236.09;6255546;28;20068;-80
2022/08/27 07:29:59;;;;;;;1.67;1.42;;;;;;;19.01;100.00;101244.31;6240041;28;20516;-81
2022/08/27 07:33:00;;;;;;;1.05;0.73;;;;;;;18.99;100.00;101249.78;6232516;28;20057;-81
2022/08/27 07:36:02;;;;;;;3.35;1.05;;;;;;;18.97;100.00;101245.53;6236081;28;20041;-81
2022/08/27 07:39:04;;;;;;;4.00;0.77;;;;;;;18.98;100.00;101247.22;6235419;28;20046;-82
2022/08/27 07:45:27;;;;;;;5.65;1.05;;;;;;;18.98;100.00;101247.22;6236798;28;20050;-81
2022/08/27 07:48:29;;;;;;;3.75;0.95;;;;;;;18.99;100.00;101251.63;6238327;28;20045;-80
2022/08/27 07:51:31;;;;;;;8.88;1.15;;;;;;;18.98;100.00;101244.56;6237356;28;20131;-82
2022/08/27 07:54:33;;;;;;;3.88;1.27;;;;;;;19.04;100.00;101251.25;6234899;28;20497;-81
2022/08/27 07:57:34;;;;;;;4.28;1.35;;;;;;;19.23;100.00;101259.41;6238605;28;20050;-81
2022/08/27 08:00:37;;;;;;;2.90;0.98;;;;;;;19.17;100.00;101270.59;6236668;28;20042;-81
2022/08/27 08:03:39;;;;;;;9.02;1.98;;;;;;;19.16;100.00;101264.38;6237517;28;20112;-82
2022/08/27 08:06:40;;;;;;;1.08;0.75;;;;;;;19.14;100.00;101269.00;6234943;28;20061;-79
2022/08/27 08:09:42;;;;;;;3.45;0.93;;;;;;;19.17;100.00;101260.78;6237584;28;20069;-81
2022/08/27 08:12:43;;;;;;;4.35;1.92;;;;;;;19.25;100.00;101266.31;6238298;28;20054;-81
2022/08/27 08:15:47;;;;;;;3.63;0.98;;;;;;;19.21;100.00;101269.34;6235764;28;20049;-82
2022/08/27 08:18:48;;;;;;;4.57;1.13;;;;;;;19.18;100.00;101269.63;6235890;28;20417;-82
2022/08/27 08:21:49;;;;;;;5.50;0.88;;;;;;;19.29;100.00;101271.38;6232699;28;20053;-82
2022/08/27 08:24:51;;;;;;;3.67;0.77;;;;;;;19.13;100.00;101275.31;6234807;28;20061;-82
2022/08/27 08:27:52;;;;;;;3.00;0.90;;;;;;;19.20;100.00;101284.50;6231938;28;20069;-81
2022/08/27 08:30:55;;;;;;;1.52;0.88;;;;;;;19.18;100.00;101282.94;6236080;28;20050;-82
2022/08/27 08:33:57;;;;;;;1.48;0.77;;;;;;;19.10;100.00;101288.88;6234757;28;20049;-80
2022/08/27 08:36:58;;;;;;;4.78;1.38;;;;;;;19.08;100.00;101287.31;6237781;28;20046;-82
2022/08/27 08:39:59;;;;;;;1.60;0.73;;;;;;;19.11;100.00;101293.22;6240932;28;20042;-83
2022/08/27 08:43:02;;;;;;;2.83;1.02;;;;;;;19.20;100.00;101295.16;6237614;28;20058;-82
2022/08/27 08:46:12;;;;;;;1.45;0.63;;;;;;;19.26;100.00;101289.34;6237369;28;20056;-83
2022/08/27 08:49:34;;;;;;;2.53;0.90;;;;;;;19.36;100.00;101289.44;6238082;28;20057;-82
2022/08/27 08:52:43;;;;;;;4.50;0.82;;;;;;;19.38;100.00;101299.97;6240523;28;20053;-83
2022/08/27 08:55:47;;;;;;;;;;;;;;;19.41;100.00;101294.38;6236683;28;20135;-82
2022/08/27 08:58:52;;;;;;;1.85;0.70;;;;;;;19.49;100.00;101302.63;6236774;28;19929;-82
2022/08/27 09:01:56;;;;;;;4.90;0.95;;;;;;;19.55;97.73;101299.44;6231476;28;20065;-80
2022/08/27 09:05:04;;;;;;;2.47;1.40;;;;;;;19.48;96.53;101300.88;6234163;28;20049;-81
2022/08/27 09:08:11;;;;;;;2.53;1.48;;;;;;;19.51;96.87;101297.97;6243459;28;20121;-81
2022/08/27 09:11:21;;;;;;;4.78;0.90;;;;;;;19.54;95.56;101310.22;6233241;28;20042;-79
2022/08/27 09:14:33;;;;;;;3.05;1.08;;;;;;;19.67;94.33;101298.47;6231140;28;20544;-79
2022/08/27 09:17:36;;;;;;;4.22;0.80;;;;;;;19.66;93.61;101310.06;6231278;28;20489;-81
2022/08/27 09:20:39;;;;;;;0.82;0.55;;;;;;;19.60;93.25;101299.03;6233245;28;20141;-80
2022/08/27 09:23:51;;;;;;;1.73;0.80;;;;;;;19.74;93.61;101312.13;6230842;28;20061;-80
2022/08/27 09:26:52;;;;;;;2.38;0.73;;;;;;;19.84;92.32;101307.69;6230876;28;20054;-80
2022/08/27 09:29:55;;;;;;;8.32;1.20;;;;;;;19.76;92.74;101311.03;6230929;28;20057;-80
2022/08/27 09:33:02;;;;;;;2.28;0.93;;;;;;;19.77;92.65;101307.38;6230444;28;20046;-81
2022/08/27 09:36:08;;;;;;;5.38;1.23;;;;;;;19.90;91.40;101311.69;6231138;28;20081;-80
2022/08/27 09:39:10;;;;;;;2.75;1.00;;;;;;;19.88;90.89;101306.47;6239403;28;20045;-80
2022/08/27 09:42:25;;;;;;;7.43;1.13;;;;;;;19.87;92.11;101310.13;6237443;28;20053;-80
2022/08/27 09:45:29;;;;;;;6.78;1.55;;;;;;;19.87;91.82;101312.78;6236902;28;20041;-78
2022/08/27 09:48:35;;;;;;;0.77;0.63;;;;;;;19.87;92.25;101310.13;6235820;28;20038;-80
2022/08/27 09:51:40;;;;;;;3.13;1.20;;;;;;;19.80;92.30;101308.94;6249421;28;20049;-78
2022/08/27 09:54:46;;;;;;;2.00;0.80;;;;;;;19.95;92.63;101304.16;6250331;28;20524;-80
2022/08/27 09:57:47;;;;;;;6.38;1.42;;;;;;;20.06;92.00;101304.09;6250058;28;20048;-78
2022/08/27 10:00:57;;;;;;;2.42;0.75;;;;;;;20.14;91.33;101304.28;6250541;28;20493;-77
2022/08/27 10:04:08;;;;;;;4.80;1.50;;;;;;;20.36;90.23;101307.81;6249268;28;20046;-77
2022/08/27 10:07:31;;;;;;;2.70;0.90;;;;;;;20.35;88.75;101306.09;6249167;28;20437;-77
2022/08/27 10:10:44;;;;;;;1.40;0.80;;;;;;;20.14;88.24;101298.09;6249101;28;20414;-77
2022/08/27 10:13:56;;;;;;;4.57;1.85;;;;;;;20.23;88.90;101283.97;6249915;28;20053;-78
2022/08/27 10:17:10;;;;;;;4.20;1.33;;;;;;;20.32;88.84;101293.03;6247938;28;20424;-75
2022/08/27 10:20:21;;;;;;;3.78;1.05;;;;;;;20.24;88.09;101289.19;6249309;28;20413;-80
2022/08/27 10:23:30;;;;;;;8.13;1.35;;;;;;;20.38;88.80;101285.31;6250882;28;20501;-80
2022/08/27 10:26:40;;;;;;;4.82;1.05;;;;;;;20.49;88.44;101289.78;6246212;28;20140;-79
2022/08/27 10:29:49;;;;;;;1.63;0.88;;;;;;;20.41;87.50;101298.41;6233654;28;20050;-81
2022/08/27 10:33:00;;;;;;;3.22;1.08;;;;;;;20.49;87.92;101297.78;6243933;28;20057;-81
2022/08/27 10:36:09;;;;;;;7.07;1.10;;;;;;;20.45;87.50;101293.66;6245426;28;20527;-79
2022/08/27 10:39:22;;;;;;;7.13;1.35;;;;;;;20.40;88.03;101296.72;6244119;28;20048;-79
2022/08/27 10:42:28;;;;;;;1.52;0.80;;;;;;;20.48;87.07;101296.06;6245855;28;20045;-81
2022/08/27 10:45:43;;;;;;;6.43;1.02;;;;;;;20.52;86.70;101303.69;6237477;28;20154;-79
2022/08/27 10:48:54;;;;;;;4.00;1.23;;;;;;;20.44;86.47;101292.81;6233059;28;20077;-81
2022/08/27 10:52:05;;;;;;;8.15;1.30;;;;;;;20.50;86.50;101289.63;6238043;28;20054;-80
2022/08/27 10:55:13;;;;;;;2.22;1.00;;;;;;;20.61;86.63;101298.53;6228424;28;20050;-81
2022/08/27 10:58:35;;;;;;;2.75;0.80;;;;;;;20.48;85.33;101299.63;6227511;28;20046;-80
2022/08/27 11:01:43;;;;;;;6.05;1.50;;;;;;;20.46;86.36;101295.34;6227153;28;20054;-80
2022/08/27 11:04:49;;;;;;;5.18;1.50;;;;;;;20.42;85.55;101305.44;6225832;28;20046;-81
2022/08/27 11:07:56;;;;;;;5.28;1.45;;;;;;;20.47;86.48;101297.03;6229079;28;20050;-83
2022/08/27 11:11:01;;;;;;;2.75;1.10;;;;;;;20.58;85.70;101298.81;6228326;28;20054;-80
2022/08/27 11:14:08;;;;;;;4.40;0.93;;;;;;;20.64;84.58;101293.78;6229275;28;20046;-83
2022/08/27 11:17:15;;;;;;;5.43;0.90;;;;;;;20.44;84.81;101297.31;6228109;28;20045;-80
2022/08/27 11:20:22;;;;;;;3.33;1.35;;;;;;;20.44;84.36;101297.31;6228014;28;20054;-80
2022/08/27 11:23:29;;;;;;;2.22;1.13;;;;;;;20.51;84.96;101294.00;6228199;28;20053;-80
2022/08/27 11:26:33;;;;;;;3.30;1.40;;;;;;;20.57;84.82;101299.78;6228634;28;20485;-81
2022/08/27 11:29:40;;;;;;;1.33;1.00;;;;;;;20.62;84.55;101294.88;6237212;28;20046;-81
2022/08/27 11:32:54;;;;;;;2.13;1.20;;;;;;;20.39;84.47;101310.19;6226115;28;20414;-79
2022/08/27 11:36:36;;;;;;;7.45;1.70;;;;;;;20.42;84.46;101299.25;6232706;28;20046;-77
2022/08/27 11:39:52;;;;;;;3.95;1.13;;;;;;;20.53;84.80;101293.88;6229934;28;20403;-81
2022/08/27 11:42:57;;;;;;;5.05;1.20;;;;;;;20.52;84.36;101298.34;6233025;28;20074;-80
2022/08/27 11:46:01;;;;;;;3.92;1.58;;;;;;;20.82;83.18;101303.84;6242686;28;20054;-80
2022/08/27 11:49:04;;;;;;;8.55;1.55;;;;;;;20.69;82.63;101301.41;6249918;28;20057;-79
2022/08/27 11:52:08;;;;;;;4.55;1.20;;;;;;;20.60;83.13;101307.53;6252331;28;20052;-79
2022/08/27 11:55:23;;;;;;;17.02;2.53;;;;;;;20.70;82.41;101303.91;6253977;28;20050;-79
2022/08/27 11:58:29;;;;;;;3.47;0.85;;;;;;;20.63;82.77;101300.13;6252028;28;20056;-80
2022/08/27 12:01:31;;;;;;;6.07;1.55;;;;;;;20.48;83.37;101298.75;6251174;28;20567;-81
2022/08/27 12:04:35;;;;;;;5.00;1.13;;;;;;;20.56;82.54;101298.94;6249229;28;20056;-80
2022/08/27 12:07:39;;;;;;;1.58;1.00;;;;;;;20.62;82.38;101297.56;6244536;28;20045;-81
2022/08/27 12:10:55;;;;;;;7.60;1.83;;;;;;;20.61;83.00;101299.38;6249791;28;20047;-80
2022/08/27 12:14:07;;;;;;;1.95;0.98;;;;;;;20.54;82.21;101292.91;6248949;28;20049;-80
2022/08/27 12:17:21;;;;;;;5.75;1.25;;;;;;;20.63;81.74;101289.44;6250233;28;20049;-81
2022/08/27 12:20:34;;;;;;;3.05;1.27;;;;;;;20.73;81.97;101292.97;6239675;28;20045;-81
2022/08/27 12:23:49;;;;;;;3.25;1.17;;;;;;;20.97;80.13;101291.78;6231818;28;20060;-82
2022/08/27 12:26:58;;;;;;;7.75;1.13;;;;;;;21.07;80.06;101295.34;6231285;28;20068;-81
2022/08/27 12:30:03;;;;;;;3.03;1.30;;;;;;;21.03;78.73;101302.81;6231933;28;20049;-78
2022/08/27 12:33:11;;;;;;;3.58;1.20;;;;;;;20.89;78.36;101297.84;6243117;28;20046;-80
2022/08/27 12:36:19;;;;;;;5.00;1.30;;;;;;;20.84;78.90;101292.03;6225485;28;20056;-79
2022/08/27 12:39:26;;;;;;;7.93;1.85;;;;;;;20.98;78.09;101296.16;6236369;28;20050;-78
2022/08/27 12:42:29;;;;;;;3.65;1.10;;;;;;;20.93;76.83;101306.41;6228675;28;20516;-79
2022/08/27 12:45:30;;;;;;;6.53;0.82;;;;;;;20.90;77.62;101304.88;6236112;28;20042;-80
2022/08/27 12:48:36;;;;;;;1.83;0.98;;;;;;;21.14;74.95;101299.16;6228291;28;20046;-81
2022/08/27 12:51:38;;;;;;;4.45;1.10;;;;;;;21.07;75.66;101299.84;6226548;28;20053;-81
2022/08/27 12:54:53;;;;;;;2.45;0.52;;;;;;;21.18;75.57;101303.25;6227200;28;20494;-76
2022/08/27 12:58:07;;;;;;;4.68;0.88;;;;;;;21.04;74.72;101300.97;6228975;28;20042;-79
2022/08/27 13:01:30;;;;;;;3.40;0.88;;;;;;;21.13;74.37;101297.47;6237925;28;20050;-80
2022/08/27 13:04:33;;;;;;;4.28;1.00;;;;;;;21.07;74.21;101298.00;6236848;28;20060;-79
2022/08/27 13:07:40;;;;;;;4.28;0.88;;;;;;;21.16;73.02;101299.00;6230684;28;20054;-79
2022/08/27 13:10:41;;;;;;;1.83;0.70;;;;;;;21.20;73.45;101293.25;6229825;28;20545;-80
2022/08/27 13:13:45;;;;;;;3.42;0.73;;;;;;;21.17;73.08;101293.56;6229370;28;20050;-80
2022/08/27 13:16:50;;;;;;;2.92;0.80;;;;;;;21.16;73.06;101291.00;6229006;28;20050;-78
2022/08/27 13:19:57;;;;;;;3.95;1.05;;;;;;;21.22;74.27;101293.13;6228358;28;20046;-80
2022/08/27 13:22:59;;;;;;;1.48;0.77;;;;;;;21.24;73.58;101296.50;6237185;28;20425;-79
2022/08/27 13:26:06;;;;;;;2.67;1.08;;;;;;;21.19;73.79;101293.41;6234778;28;20054;-79
2022/08/27 13:29:09;;;;;;;0.75;0.55;;;;;;;21.23;74.09;101295.66;6226590;28;20046;-79
2022/08/27 13:32:13;;;;;;;4.00;1.15;;;;;;;21.18;73.66;101295.25;6226240;28;20057;-77
2022/08/27 13:35:15;;;;;;;3.33;1.10;;;;;;;21.11;73.88;101294.09;6228081;28;20048;-78
2022/08/27 13:38:18;;;;;;;1.90;0.70;;;;;;;21.08;74.83;101286.34;6242287;28;20057;-80
2022/08/27 13:41:28;;;;;;;5.90;0.82;;;;;;;21.06;74.88;101290.97;6247523;28;20049;-79
2022/08/27 13:44:34;;;;;;;6.07;1.80;;;;;;;21.07;74.70;101295.34;6250527;28;20053;-78
2022/08/27 13:47:44;;;;;;;6.90;1.20;;;;;;;21.03;74.76;101291.28;6250905;28;20052;-79
2022/08/27 13:50:50;;;;;;;1.60;1.00;;;;;;;21.06;74.50;101296.31;6250579;28;20041;-79
2022/08/27 13:57:12;;;;;;;3.13;0.93;;;;;;;20.91;75.36;101298.53;6250200;28;20057;-78
2022/08/27 14:00:19;;;;;;;5.85;1.20;;;;;;;20.89;75.53;101297.84;6249349;28;20049;-78
2022/08/27 14:03:24;;;;;;;4.00;0.73;;;;;;;20.88;74.68;101297.94;6250244;28;20055;-79
2022/08/27 14:06:28;;;;;;;3.25;0.68;;;;;;;20.90;74.60;101296.00;6249987;28;20045;-79
2022/08/27 14:09:30;;;;;;;4.97;1.45;;;;;;;20.95;74.58;101291.94;6250491;28;20056;-79
2022/08/27 14:12:34;;;;;;;3.47;0.90;;;;;;;20.93;74.51;101295.72;6249654;28;20053;-79
2022/08/27 14:15:39;;;;;;;4.32;0.95;;;;;;;20.93;73.85;101293.03;6249892;28;20054;-80
2022/08/27 14:18:51;;;;;;;10.95;2.35;;;;;;;20.86;73.35;101291.91;6249765;28;20531;-78
2022/08/27 14:21:52;;;;;;;5.93;1.52;;;;;;;20.84;73.60;101293.84;6249163;28;20049;-77
2022/08/27 14:24:53;;;;;;;1.77;1.20;;;;;;;20.93;74.04;101293.88;6249803;28;20057;-80